Time;durP1;ratioP1;P1;durP2;ratioP2;P2;SDS_P1;SDS_P2;PMS_P1;PMS_P2;Temp;Humidity;BMP_temperature;BMP_pressure;BME280_temperature;BME280_humidity;BME280_pressure;Samples;Min_cycle;Max_cycle;Signal;HPM_P1;HPM_P2
2022/06/06 00:01:41;;;;;;;10.87;6.30;;;;;;;16.87;84.84;101235.78;4968110;28;20055;-70
2022/06/06 00:04:10;;;;;;;8.73;5.85;;;;;;;16.37;85.49;101237.84;4958875;28;20058;-69
2022/06/06 00:06:39;;;;;;;10.05;5.90;;;;;;;16.33;86.77;101236.88;4957485;29;20059;-70
2022/06/06 00:09:08;;;;;;;10.23;6.72;;;;;;;16.52;86.15;101240.03;4958038;29;20054;-70
2022/06/06 00:11:36;;;;;;;10.65;5.57;;;;;;;16.75;84.60;101244.09;4952067;29;20459;-70
2022/06/06 00:14:04;;;;;;;8.65;5.90;;;;;;;16.53;85.35;101244.44;4972749;28;20634;-64
2022/06/06 00:16:32;;;;;;;10.30;6.13;;;;;;;16.71;85.12;101252.28;4967016;28;20047;-64
2022/06/06 00:19:05;;;;;;;11.93;6.60;;;;;;;16.89;83.60;101250.16;4964805;28;20050;-63
2022/06/06 00:21:34;;;;;;;8.68;5.57;;;;;;;16.76;84.20;101248.47;4959865;28;20055;-64
2022/06/06 00:24:01;;;;;;;10.63;6.00;;;;;;;16.75;84.81;101244.88;4977139;28;20053;-63
2022/06/06 00:26:31;;;;;;;10.00;5.70;;;;;;;16.96;84.13;101247.63;4976662;28;20054;-62
2022/06/06 00:28:58;;;;;;;9.70;5.93;;;;;;;16.78;83.46;101240.59;4943602;28;20066;-63
2022/06/06 00:37:02;;;;;;;9.13;5.53;;;;;;;16.88;82.75;101237.38;4976368;28;20054;-64
2022/06/06 00:39:29;;;;;;;11.55;6.07;;;;;;;16.91;82.32;101228.38;4975265;28;20544;-64
2022/06/06 00:41:57;;;;;;;12.48;5.68;;;;;;;17.16;82.04;101230.03;4976711;28;20173;-63
2022/06/06 00:44:30;;;;;;;8.88;6.00;;;;;;;16.89;82.01;101222.34;4976697;28;20058;-63
2022/06/06 00:47:18;;;;;;;9.30;5.53;;;;;;;16.88;82.96;101222.69;4959237;28;20058;-63
2022/06/06 00:50:00;;;;;;;12.65;5.85;;;;;;;16.81;83.61;101226.00;4959438;28;20059;-63
2022/06/06 00:52:31;;;;;;;10.88;5.95;;;;;;;17.06;82.74;101222.16;4959404;28;20065;-64
2022/06/06 00:55:02;;;;;;;10.55;5.75;;;;;;;17.18;81.80;101224.13;4974461;28;20063;-63
2022/06/06 00:57:32;;;;;;;;;;;;;;;16.95;82.57;101218.16;4959346;28;20055;-63
2022/06/06 01:00:07;;;;;;;8.05;5.97;;;;;;;16.90;83.27;101223.94;4975493;28;19922;-64
2022/06/06 01:02:35;;;;;;;8.73;6.30;;;;;;;16.88;83.26;101217.91;4991493;28;20059;-63
2022/06/06 01:05:03;;;;;;;11.15;6.30;;;;;;;16.89;83.37;101222.34;4976630;28;20054;-63
2022/06/06 01:07:31;;;;;;;12.70;6.05;;;;;;;16.97;82.58;101217.81;4976105;28;20489;-63
2022/06/06 01:09:59;;;;;;;9.32;6.05;;;;;;;16.86;82.77;101212.69;4976355;28;20054;-64
2022/06/06 01:12:29;;;;;;;11.65;6.43;;;;;;;16.70;83.79;101199.78;4959138;28;20055;-64
2022/06/06 01:14:59;;;;;;;9.20;5.72;;;;;;;16.76;83.48;101209.53;4976487;28;20058;-63
2022/06/06 01:17:40;;;;;;;8.98;6.18;;;;;;;16.74;83.87;101204.31;4958990;28;20059;-63
2022/06/06 01:20:26;;;;;;;11.98;6.60;;;;;;;16.71;84.69;101201.41;4958882;28;20058;-70
2022/06/06 01:23:08;;;;;;;9.65;6.30;;;;;;;16.58;84.55;101206.09;4976212;28;20054;-64
2022/06/06 01:26:14;;;;;;;10.10;6.38;;;;;;;17.07;83.47;101200.69;4976056;28;20065;-63
2022/06/06 01:28:56;;;;;;;12.05;6.50;;;;;;;17.05;82.79;101205.78;4973823;28;20051;-70
2022/06/06 01:31:39;;;;;;;8.40;6.15;;;;;;;16.99;82.07;101193.25;4974837;28;20066;-70
2022/06/06 01:34:08;;;;;;;9.95;6.15;;;;;;;16.95;82.25;101198.69;4959071;28;20475;-70
2022/06/06 01:36:36;;;;;;;15.02;6.30;;;;;;;16.96;82.70;101193.94;4975656;28;20070;-64
2022/06/06 01:39:07;;;;;;;10.60;6.38;;;;;;;16.75;82.40;101203.13;4958807;28;20427;-69
2022/06/06 01:41:43;;;;;;;10.43;5.65;;;;;;;17.02;82.08;101203.69;4974819;28;20058;-70
2022/06/06 01:44:19;;;;;;;10.50;6.15;;;;;;;17.06;81.75;101199.88;4958617;28;20054;-71
2022/06/06 01:46:47;;;;;;;10.40;6.03;;;;;;;17.16;81.38;101201.38;4976100;28;20058;-65
2022/06/06 01:49:15;;;;;;;8.48;5.53;;;;;;;17.08;80.96;101202.31;4990974;28;20063;-70
2022/06/06 01:51:43;;;;;;;7.43;4.43;;;;;;;16.88;80.38;101198.44;4990722;28;20046;-63
2022/06/06 01:54:15;;;;;;;9.23;4.93;;;;;;;16.77;80.50;101200.03;4976402;28;20062;-64
2022/06/06 01:56:43;;;;;;;10.82;4.57;;;;;;;16.82;79.68;101200.63;4991111;28;20438;-70
2022/06/06 01:59:10;;;;;;;6.25;4.00;;;;;;;16.75;79.37;101199.56;4975923;28;20046;-63
2022/06/06 02:01:37;;;;;;;8.45;3.85;;;;;;;16.78;79.05;101198.88;4990305;28;20059;-63
2022/06/06 02:04:05;;;;;;;7.53;3.78;;;;;;;16.79;78.12;101197.69;4958686;28;20051;-69
2022/06/06 02:06:32;;;;;;;7.93;3.70;;;;;;;16.80;77.96;101197.38;4975775;28;20433;-63
2022/06/06 02:09:00;;;;;;;10.68;4.13;;;;;;;16.88;77.35;101190.91;4994246;28;20065;-70
2022/06/06 02:11:28;;;;;;;10.30;3.67;;;;;;;17.04;77.18;101190.22;4979031;28;20510;-70
2022/06/06 02:13:55;;;;;;;8.38;3.63;;;;;;;16.88;77.12;101198.44;4979242;28;20058;-69
2022/06/06 02:16:24;;;;;;;6.53;3.58;;;;;;;16.87;76.96;101191.25;4979412;28;20538;-64
2022/06/06 02:18:51;;;;;;;7.93;3.88;;;;;;;16.82;76.33;101197.84;4973934;28;20059;-64
2022/06/06 02:21:19;;;;;;;8.30;3.60;;;;;;;16.51;77.66;101186.38;4958485;29;20047;-63
2022/06/06 02:23:48;;;;;;;8.82;3.47;;;;;;;16.51;77.76;101194.72;4958652;29;20058;-63
2022/06/06 02:26:16;;;;;;;6.88;4.20;;;;;;;16.39;78.47;101191.84;4959804;29;20055;-63
2022/06/06 02:28:43;;;;;;;8.02;3.90;;;;;;;16.51;78.47;101202.25;4958084;29;20517;-64
2022/06/06 02:31:11;;;;;;;8.65;4.30;;;;;;;16.73;77.62;101186.00;4959552;29;20051;-63
2022/06/06 02:33:38;;;;;;;7.57;3.40;;;;;;;16.70;77.65;101180.31;4959636;29;20407;-70
2022/06/06 02:36:06;;;;;;;5.50;3.53;;;;;;;16.62;77.70;101187.59;4958086;29;20066;-64
2022/06/06 02:38:34;;;;;;;6.68;3.75;;;;;;;16.58;77.46;101185.84;4966969;28;20163;-70
2022/06/06 02:41:10;;;;;;;7.00;3.88;;;;;;;16.40;78.20;101187.13;4978921;28;20054;-63
2022/06/06 02:43:43;;;;;;;7.15;3.65;;;;;;;16.60;77.10;101198.22;4978607;28;20051;-63
2022/06/06 02:46:13;;;;;;;6.75;3.38;;;;;;;16.59;76.81;101195.78;4977966;28;20054;-69
2022/06/06 02:48:40;;;;;;;6.65;3.75;;;;;;;16.32;77.46;101199.13;4993709;28;20410;-64
2022/06/06 02:51:08;;;;;;;6.13;3.45;;;;;;;16.25;77.56;101193.31;4978931;28;20077;-70
2022/06/06 02:53:36;;;;;;;7.85;3.55;;;;;;;16.16;78.10;101198.13;4961395;28;20051;-63
2022/06/06 02:56:04;;;;;;;4.88;3.45;;;;;;;16.15;77.99;101191.75;4978833;28;20054;-71
2022/06/06 02:58:31;;;;;;;7.22;3.75;;;;;;;16.19;78.45;101187.13;4961179;28;20046;-69
2022/06/06 03:01:01;;;;;;;8.02;4.00;;;;;;;16.20;78.04;101188.75;4961334;28;20058;-70
2022/06/06 03:03:29;;;;;;;5.75;3.47;;;;;;;16.15;78.34;101188.97;4978598;28;20050;-70
2022/06/06 03:06:05;;;;;;;6.13;3.80;;;;;;;16.11;78.73;101187.22;4978591;28;20387;-69
2022/06/06 03:08:35;;;;;;;7.30;3.75;;;;;;;16.09;79.23;101184.75;4977264;28;20055;-70
2022/06/06 03:11:02;;;;;;;;;;;;;;;15.96;78.67;101187.78;4978789;28;20055;-69
2022/06/06 03:13:44;;;;;;;8.02;3.92;;;;;;;15.83;80.05;101186.09;4978380;28;19922;-69
2022/06/06 03:22:55;;;;;;;8.15;3.78;;;;;;;16.16;78.53;101198.13;4957849;28;20073;-70
2022/06/06 03:25:33;;;;;;;7.70;3.80;;;;;;;16.15;78.44;101200.06;4960067;28;20410;-70
2022/06/06 03:28:03;;;;;;;6.40;3.47;;;;;;;15.98;79.03;101203.00;4960908;28;20058;-68
2022/06/06 03:30:49;;;;;;;9.32;4.32;;;;;;;15.96;79.73;101204.47;4978012;28;20051;-64
2022/06/06 03:33:22;;;;;;;6.32;3.65;;;;;;;16.24;78.32;101208.34;4959575;28;20058;-69
2022/06/06 03:35:59;;;;;;;7.63;3.15;;;;;;;16.24;78.02;101208.34;4977748;28;20058;-70
2022/06/06 03:38:39;;;;;;;6.28;3.17;;;;;;;15.96;78.63;101199.72;4977711;28;20089;-71
2022/06/06 03:41:11;;;;;;;7.80;3.05;;;;;;;16.05;77.96;101203.25;4977828;28;20510;-71
2022/06/06 03:43:54;;;;;;;9.25;3.53;;;;;;;16.12;77.42;101203.53;4976945;28;20391;-64
2022/06/06 03:46:49;;;;;;;7.30;3.53;;;;;;;16.07;77.57;101205.69;4977535;28;20483;-63
2022/06/06 03:49:41;;;;;;;6.53;3.50;;;;;;;16.00;77.49;101206.25;4959635;28;20443;-70
2022/06/06 03:52:19;;;;;;;8.10;3.47;;;;;;;16.00;77.34;101202.66;4976318;28;20380;-70
2022/06/06 03:55:06;;;;;;;8.02;3.17;;;;;;;16.06;77.53;101206.84;4977507;28;20546;-70
2022/06/06 03:57:35;;;;;;;6.65;3.00;;;;;;;15.96;77.63;101213.63;4977086;28;20525;-70
2022/06/06 04:00:11;;;;;;;6.72;3.00;;;;;;;15.82;77.30;101207.50;4992140;28;20057;-63
2022/06/06 04:02:41;;;;;;;8.27;3.35;;;;;;;15.76;77.88;101209.66;4977503;28;20047;-70
2022/06/06 04:05:16;;;;;;;4.82;2.55;;;;;;;16.11;77.09;101213.00;4977378;28;20054;-64
2022/06/06 04:07:43;;;;;;;8.52;3.25;;;;;;;16.08;76.10;101222.03;4977066;28;20053;-70
2022/06/06 04:10:13;;;;;;;6.47;2.80;;;;;;;15.92;76.40;101221.00;4977266;28;20080;-69
2022/06/06 04:12:56;;;;;;;5.73;2.67;;;;;;;15.81;76.98;101214.22;4975773;28;20051;-70
2022/06/06 04:16:01;;;;;;;6.65;2.90;;;;;;;15.85;77.31;101223.50;4977010;28;20305;-64
2022/06/06 04:18:48;;;;;;;6.65;3.15;;;;;;;15.69;77.48;101228.81;4974732;28;20047;-63
2022/06/06 04:21:45;;;;;;;7.07;2.85;;;;;;;15.85;76.78;101228.25;4969357;28;20050;-70
2022/06/06 04:24:34;;;;;;;4.38;2.42;;;;;;;16.05;76.24;101228.28;4956558;29;20063;-70
2022/06/06 04:27:14;;;;;;;4.15;2.53;;;;;;;15.92;76.34;101226.56;4974748;28;20058;-62
2022/06/06 04:29:57;;;;;;;5.13;2.53;;;;;;;15.91;76.11;101232.44;4976984;28;20046;-64
2022/06/06 04:32:51;;;;;;;5.18;2.20;;;;;;;15.72;76.00;101221.78;4990950;28;20047;-63
2022/06/06 04:35:43;;;;;;;7.15;2.47;;;;;;;15.84;75.04;101223.81;5007952;28;20061;-63
2022/06/06 04:38:19;;;;;;;6.70;2.20;;;;;;;15.99;74.72;101226.03;4980921;28;20405;-64
2022/06/06 04:40:54;;;;;;;4.90;2.00;;;;;;;15.87;74.37;101225.94;4994895;28;20051;-64
2022/06/06 04:43:50;;;;;;;3.80;1.73;;;;;;;15.99;72.93;101226.03;4978647;28;20082;-64
2022/06/06 04:46:30;;;;;;;5.03;2.42;;;;;;;15.68;73.76;101221.66;4996004;28;20069;-70
2022/06/06 04:48:57;;;;;;;2.47;1.50;;;;;;;15.92;73.42;101215.44;4994736;28;20065;-63
2022/06/06 04:51:25;;;;;;;5.63;1.70;;;;;;;15.83;73.51;101223.00;4994701;28;20051;-69
2022/06/06 04:53:55;;;;;;;5.88;1.83;;;;;;;15.91;73.41;101224.13;5010908;28;20054;-71
2022/06/06 04:56:23;;;;;;;3.90;1.90;;;;;;;16.13;72.45;101223.78;4978845;28;20061;-68
2022/06/06 04:58:52;;;;;;;5.38;1.65;;;;;;;16.11;71.81;101221.34;4995628;28;20085;-63
2022/06/06 05:01:20;;;;;;;4.38;1.40;;;;;;;16.23;70.99;101226.19;4995894;28;20050;-63
2022/06/06 05:03:47;;;;;;;4.00;1.20;;;;;;;15.86;71.79;101222.34;4994408;28;20498;-70
2022/06/06 05:06:15;;;;;;;5.00;1.30;;;;;;;15.99;71.56;101229.59;4995924;28;20069;-70
2022/06/06 05:09:15;;;;;;;5.05;1.25;;;;;;;15.96;71.96;101226.69;4995965;28;20051;-70
2022/06/06 05:12:00;;;;;;;3.95;1.45;;;;;;;15.90;71.83;101222.50;4978724;28;20050;-69
2022/06/06 05:14:54;;;;;;;3.83;1.50;;;;;;;15.78;71.03;101215.69;4995618;28;20050;-64
2022/06/06 05:17:54;;;;;;;5.20;1.48;;;;;;;15.91;71.18;101215.78;4979737;28;20052;-62
2022/06/06 05:20:39;;;;;;;4.82;1.42;;;;;;;15.84;71.56;101221.06;4978136;28;20070;-63
2022/06/06 05:23:40;;;;;;;5.18;1.30;;;;;;;15.80;71.77;101223.69;4975911;28;20050;-70
2022/06/06 05:26:18;;;;;;;1.83;1.10;;;;;;;15.71;72.36;101222.91;4959258;28;20058;-70
2022/06/06 05:28:48;;;;;;;4.00;1.10;;;;;;;15.76;71.73;101231.88;4976026;28;20050;-63
2022/06/06 05:31:29;;;;;;;5.45;1.25;;;;;;;15.88;71.32;101233.94;4976339;28;20055;-69
2022/06/06 05:34:19;;;;;;;3.65;1.30;;;;;;;15.78;71.50;101237.09;4958787;28;20055;-69
2022/06/06 05:36:53;;;;;;;6.07;1.25;;;;;;;15.82;71.47;101238.06;4951419;28;20062;-70
2022/06/06 05:39:46;;;;;;;3.58;1.10;;;;;;;16.05;70.55;101235.78;4975951;28;20062;-70
2022/06/06 05:42:20;;;;;;;6.70;1.75;;;;;;;15.88;71.21;101236.72;4991295;28;20059;-66
2022/06/06 05:45:19;;;;;;;4.93;1.65;;;;;;;15.99;70.96;101231.59;4978480;28;20062;-69
2022/06/06 05:47:54;;;;;;;3.08;1.15;;;;;;;15.65;71.16;101230.66;4978580;28;20410;-70
2022/06/06 05:50:33;;;;;;;2.53;1.02;;;;;;;15.75;71.42;101227.47;4962624;28;20054;-70
2022/06/06 05:53:21;;;;;;;12.23;1.50;;;;;;;15.86;71.33;101233.47;4979344;28;20059;-71
2022/06/06 05:56:11;;;;;;;2.42;1.38;;;;;;;16.01;71.18;101235.66;4979468;28;20297;-63
2022/06/06 05:58:42;;;;;;;3.97;1.02;;;;;;;15.79;71.97;101238.75;4962167;28;20061;-70
2022/06/06 06:01:09;;;;;;;7.43;1.25;;;;;;;15.90;72.47;101237.19;4978444;28;20062;-70
2022/06/06 06:03:49;;;;;;;8.32;1.60;;;;;;;15.83;71.46;101241.66;4979563;28;20047;-69
2022/06/06 06:06:26;;;;;;;4.78;1.25;;;;;;;15.96;71.83;101235.84;4979441;28;20059;-63
2022/06/06 06:09:03;;;;;;;6.60;1.35;;;;;;;15.84;71.82;101246.88;4978275;28;20051;-70
2022/06/06 06:11:43;;;;;;;4.60;1.35;;;;;;;15.88;72.40;101249.81;4961436;28;20517;-64
2022/06/06 06:14:32;;;;;;;7.60;1.35;;;;;;;16.30;70.71;101254.25;4961735;28;20523;-64
2022/06/06 06:17:02;;;;;;;3.90;1.27;;;;;;;16.15;70.40;101250.09;4979484;28;20059;-70
2022/06/06 06:19:36;;;;;;;4.03;1.10;;;;;;;15.76;71.52;101253.28;4951765;29;20055;-70
2022/06/06 06:22:04;;;;;;;5.45;1.48;;;;;;;15.93;71.62;101249.59;4942695;29;20063;-70
2022/06/06 06:24:35;;;;;;;10.88;1.40;;;;;;;16.09;71.92;101257.00;4959848;28;20403;-70
2022/06/06 06:27:04;;;;;;;3.17;1.15;;;;;;;16.29;70.76;101258.16;4959969;29;20066;-63
2022/06/06 06:29:31;;;;;;;3.65;1.40;;;;;;;16.36;70.60;101264.81;4959865;29;20082;-63
2022/06/06 06:32:09;;;;;;;3.75;1.10;;;;;;;16.62;70.03;101262.69;4959882;29;20439;-63
2022/06/06 06:34:39;;;;;;;6.18;1.80;;;;;;;16.84;69.35;101256.75;4959806;29;20055;-64
2022/06/06 06:37:21;;;;;;;5.07;1.48;;;;;;;16.88;69.18;101268.00;4959547;29;20055;-63
2022/06/06 06:40:01;;;;;;;2.85;1.30;;;;;;;16.62;68.71;101268.25;4976818;28;20422;-63
2022/06/06 06:43:07;;;;;;;3.22;1.00;;;;;;;16.56;69.28;101274.38;4978287;28;20066;-70
2022/06/06 06:45:49;;;;;;;3.13;1.20;;;;;;;16.39;68.96;101277.22;4978707;28;20065;-65
2022/06/06 06:48:24;;;;;;;5.93;1.00;;;;;;;16.37;69.00;101282.34;4993770;28;20061;-64
2022/06/06 06:51:04;;;;;;;4.07;1.20;;;;;;;16.45;69.25;101273.91;4946416;28;20051;-64
2022/06/06 06:54:15;;;;;;;2.47;0.85;;;;;;;16.82;68.22;101278.53;4992862;28;20066;-63
2022/06/06 06:57:04;;;;;;;2.33;0.98;;;;;;;16.61;68.09;101274.16;4976748;28;20062;-63
2022/06/06 06:59:37;;;;;;;3.97;1.20;;;;;;;16.92;67.59;101273.69;4978714;28;20054;-63
2022/06/06 07:08:35;;;;;;;2.83;1.20;;;;;;;16.46;68.44;101271.94;4990713;28;20058;-63
2022/06/06 07:11:09;;;;;;;2.47;0.90;;;;;;;16.26;69.08;101276.34;4992205;28;20055;-63
2022/06/06 07:13:51;;;;;;;2.42;0.90;;;;;;;16.66;68.57;101271.16;4978231;28;20050;-64
2022/06/06 07:16:23;;;;;;;4.05;1.23;;;;;;;16.67;67.04;101272.78;4977041;28;20054;-65
2022/06/06 07:19:03;;;;;;;3.88;1.30;;;;;;;16.51;67.48;101271.78;4987491;28;20051;-64
2022/06/06 07:21:36;;;;;;;4.80;1.23;;;;;;;16.93;66.87;101267.78;4953041;28;20067;-63
2022/06/06 07:24:07;;;;;;;5.05;1.30;;;;;;;17.08;66.31;101271.91;4958677;29;20463;-64
2022/06/06 07:26:41;;;;;;;4.65;1.20;;;;;;;16.83;66.59;101263.47;4958766;29;20063;-65
2022/06/06 07:29:12;;;;;;;2.70;1.10;;;;;;;16.61;67.43;101269.41;4958610;29;20348;-64
2022/06/06 07:31:55;;;;;;;3.95;0.98;;;;;;;16.74;67.78;101270.25;4959130;29;20051;-64
2022/06/06 07:34:35;;;;;;;4.80;1.52;;;;;;;16.75;67.23;101263.56;4973314;28;20510;-63
2022/06/06 07:37:07;;;;;;;4.22;1.60;;;;;;;16.81;67.32;101259.38;4956230;28;20498;-71
2022/06/06 07:39:54;;;;;;;4.90;1.20;;;;;;;17.24;66.72;101261.75;4974260;28;20062;-70
2022/06/06 07:42:42;;;;;;;6.35;1.27;;;;;;;17.35;65.73;101266.50;4977620;28;20051;-70
2022/06/06 07:45:25;;;;;;;5.65;1.33;;;;;;;17.56;64.72;101269.22;4977524;28;20494;-71
2022/06/06 07:48:12;;;;;;;7.78;1.40;;;;;;;17.17;65.99;101261.50;4976648;28;20066;-71
2022/06/06 07:50:52;;;;;;;5.13;1.20;;;;;;;17.17;65.86;101261.50;4992260;28;20065;-71
2022/06/06 07:53:34;;;;;;;3.22;0.98;;;;;;;17.59;65.05;101257.41;4960830;28;20042;-71
2022/06/06 07:56:34;;;;;;;4.22;1.25;;;;;;;17.52;65.26;101246.03;4977623;28;20050;-71
2022/06/06 07:59:13;;;;;;;8.35;1.40;;;;;;;17.52;64.21;101259.97;4960430;28;20050;-70
2022/06/06 08:01:52;;;;;;;3.97;1.20;;;;;;;17.40;64.93;101262.69;4975985;28;20400;-70
2022/06/06 08:04:29;;;;;;;6.18;1.38;;;;;;;17.65;63.83;101254.03;4977245;28;20055;-70
2022/06/06 08:07:34;;;;;;;5.35;1.55;;;;;;;17.74;63.11;101257.53;4959872;28;20066;-70
2022/06/06 08:10:10;;;;;;;2.85;1.10;;;;;;;17.69;63.40;101254.16;4944232;28;20055;-71
2022/06/06 08:12:52;;;;;;;5.00;1.40;;;;;;;17.63;63.68;101245.22;4959969;28;20051;-72
2022/06/06 08:15:24;;;;;;;4.50;1.30;;;;;;;17.99;62.62;101249.97;4977268;28;20517;-70
2022/06/06 08:18:32;;;;;;;3.80;0.90;;;;;;;17.88;60.82;101248.81;4960348;28;20062;-71
2022/06/06 08:21:06;;;;;;;2.53;1.10;;;;;;;18.00;60.76;101243.22;4977034;28;20055;-71
2022/06/06 08:23:34;;;;;;;4.20;1.15;;;;;;;18.24;59.32;101242.34;4959985;28;20059;-70
2022/06/06 08:26:03;;;;;;;2.55;0.85;;;;;;;18.44;59.23;101239.44;4975328;28;20059;-70
2022/06/06 08:28:31;;;;;;;3.22;1.27;;;;;;;18.71;57.23;101243.41;4975025;28;20070;-70
2022/06/06 08:30:59;;;;;;;3.25;1.10;;;;;;;18.77;56.74;101245.59;4991293;28;20078;-71
2022/06/06 08:33:27;;;;;;;4.30;1.27;;;;;;;18.66;56.50;101240.88;4975730;28;20058;-70
2022/06/06 08:36:20;;;;;;;8.82;1.40;;;;;;;18.53;55.98;101233.72;4976428;28;20054;-71
2022/06/06 08:39:02;;;;;;;5.70;1.40;;;;;;;19.03;55.10;101228.38;4975518;28;20067;-72
2022/06/06 08:41:39;;;;;;;6.32;1.70;;;;;;;19.73;54.02;101230.22;4978046;28;20053;-70
2022/06/06 08:44:36;;;;;;;3.83;1.00;;;;;;;19.51;54.71;101232.84;4976908;28;20491;-71
2022/06/06 08:47:30;;;;;;;3.00;0.80;;;;;;;19.42;53.58;101226.63;4974894;28;20050;-71
2022/06/06 08:53:28;;;;;;;8.25;1.83;;;;;;;19.60;54.23;101220.31;4975581;28;20051;-64
2022/06/06 08:56:01;;;;;;;5.68;1.50;;;;;;;19.52;52.79;101226.91;4991116;28;20059;-69
2022/06/06 08:58:31;;;;;;;3.42;1.30;;;;;;;19.48;52.88;101220.41;4976637;28;20062;-71
2022/06/06 09:01:17;;;;;;;6.70;1.65;;;;;;;19.74;50.90;101226.25;4976460;28;20077;-70
2022/06/06 09:04:24;;;;;;;4.25;1.40;;;;;;;19.70;51.80;101224.56;4976493;28;20047;-64
2022/06/06 09:07:23;;;;;;;5.35;1.85;;;;;;;19.88;50.87;101226.59;4958323;28;20070;-70
2022/06/06 09:10:27;;;;;;;3.72;1.30;;;;;;;19.86;50.12;101220.53;4976684;28;20055;-66
2022/06/06 09:13:35;;;;;;;5.03;1.27;;;;;;;20.27;50.25;101221.09;4976145;28;20055;-70
2022/06/06 09:16:18;;;;;;;7.05;1.40;;;;;;;20.30;49.81;101228.75;4976580;28;20039;-71
2022/06/06 09:19:02;;;;;;;4.10;1.02;;;;;;;20.09;50.73;101226.25;4977766;28;20054;-69
2022/06/06 09:22:02;;;;;;;3.22;0.98;;;;;;;20.49;50.31;101231.56;4978199;28;20059;-70
2022/06/06 09:25:13;;;;;;;4.50;1.10;;;;;;;20.37;49.20;101223.31;4962373;29;20410;-71
2022/06/06 09:28:17;;;;;;;4.30;0.90;;;;;;;19.40;50.77;101224.22;4973402;28;20054;-70
2022/06/06 09:31:05;;;;;;;3.15;0.80;;;;;;;19.22;51.47;101216.50;4983922;28;20051;-64
2022/06/06 09:34:10;;;;;;;4.40;1.20;;;;;;;18.99;52.75;101216.28;4997333;28;20066;-64
2022/06/06 09:37:00;;;;;;;3.67;0.90;;;;;;;18.65;52.83;101228.91;4964959;28;20055;-70
2022/06/06 09:39:53;;;;;;;3.28;1.30;;;;;;;18.39;54.26;101219.31;4982508;28;20066;-70
2022/06/06 09:42:38;;;;;;;3.70;0.93;;;;;;;18.44;53.38;101230.25;4965984;28;20058;-70
2022/06/06 09:45:44;;;;;;;4.15;1.15;;;;;;;18.46;53.78;101216.78;4980975;28;20086;-70
2022/06/06 09:48:47;;;;;;;7.88;1.15;;;;;;;18.13;53.53;101225.34;4959510;28;20058;-64
2022/06/06 09:51:27;;;;;;;2.42;0.98;;;;;;;18.20;54.98;101227.50;4958881;28;20568;-63
2022/06/06 10:00:27;;;;;;;4.13;1.00;;;;;;;18.52;52.42;101226.50;4982762;28;20134;-70
2022/06/06 10:03:16;;;;;;;2.35;0.90;;;;;;;18.90;52.05;101208.06;4965160;28;20047;-70
2022/06/06 10:05:50;;;;;;;2.42;0.80;;;;;;;19.20;49.96;101205.69;4980998;28;20055;-70
2022/06/06 10:08:56;;;;;;;5.95;0.90;;;;;;;19.45;50.25;101198.78;4982352;28;20058;-71
2022/06/06 10:11:41;;;;;;;8.23;1.08;;;;;;;19.43;48.92;101217.06;4981834;28;20395;-70
2022/06/06 10:14:23;;;;;;;5.03;1.00;;;;;;;19.70;49.18;101204.97;4996984;28;20067;-71
2022/06/06 10:17:18;;;;;;;4.50;1.00;;;;;;;19.02;48.67;101210.78;4982407;28;20054;-71
2022/06/06 10:20:04;;;;;;;3.20;1.27;;;;;;;19.13;49.37;101211.06;4969415;28;20062;-70
2022/06/06 10:23:08;;;;;;;8.10;1.40;;;;;;;19.53;50.39;101219.31;4960681;28;20169;-70
2022/06/06 10:26:16;;;;;;;4.88;1.20;;;;;;;19.73;48.65;101218.22;4962996;28;20051;-71
2022/06/06 10:29:08;;;;;;;3.33;0.90;;;;;;;19.40;48.04;101209.41;4901624;29;20057;-64
2022/06/06 10:31:47;;;;;;;5.82;1.27;;;;;;;19.44;47.79;101221.50;4958088;29;20495;-64
2022/06/06 10:34:44;;;;;;;2.72;0.85;;;;;;;19.57;48.46;101223.84;4959763;29;20058;-64
2022/06/06 10:37:33;;;;;;;4.57;1.00;;;;;;;19.85;47.85;101218.13;4958420;29;20059;-64
2022/06/06 10:40:22;;;;;;;4.28;0.90;;;;;;;20.00;48.14;101212.50;4978195;28;20066;-65
2022/06/06 10:43:08;;;;;;;4.10;1.20;;;;;;;20.50;46.33;101211.63;4977929;28;20156;-65
2022/06/06 10:45:37;;;;;;;5.88;1.33;;;;;;;20.45;46.08;101216.72;4978784;28;20055;-63
2022/06/06 10:48:17;;;;;;;5.45;1.80;;;;;;;20.49;46.67;101204.41;4979105;28;20061;-65
2022/06/06 10:51:37;;;;;;;3.72;1.10;;;;;;;20.72;45.62;101212.84;4978447;28;20104;-64
2022/06/06 10:54:35;;;;;;;5.55;2.78;;;;;;;20.66;44.30;101206.75;4977699;28;20050;-65
2022/06/06 10:57:12;;;;;;;8.18;4.63;;;;;;;20.73;45.76;101206.09;4977324;28;20050;-65
2022/06/06 11:00:18;;;;;;;7.88;2.00;;;;;;;21.12;44.64;101202.88;4976729;28;20069;-64
2022/06/06 11:03:13;;;;;;;4.13;0.90;;;;;;;20.84;42.81;101188.31;4978313;28;20050;-64
2022/06/06 11:06:17;;;;;;;7.05;3.22;;;;;;;20.30;44.39;101197.97;4977316;28;20057;-65
2022/06/06 11:09:03;;;;;;;11.00;6.85;;;;;;;19.92;45.19;101201.50;4993354;28;20538;-64
2022/06/06 11:12:05;;;;;;;7.18;3.83;;;;;;;20.07;45.68;101198.66;4978203;28;20051;-64
2022/06/06 11:14:44;;;;;;;20.45;12.98;;;;;;;20.33;45.85;101189.66;4946209;28;20062;-64
2022/06/06 11:17:44;;;;;;;22.33;14.10;;;;;;;20.63;45.46;101201.06;4961148;28;20626;-64
2022/06/06 11:20:25;;;;;;;10.85;6.07;;;;;;;20.95;43.96;101196.91;4960640;28;20517;-63
2022/06/06 11:23:34;;;;;;;6.32;2.88;;;;;;;21.22;42.57;101196.66;4975843;28;20050;-70
2022/06/06 11:26:27;;;;;;;5.25;2.60;;;;;;;21.40;42.78;101193.34;4967480;28;20063;-64
2022/06/06 11:29:20;;;;;;;2.47;1.27;;;;;;;21.49;41.65;101185.47;4978019;28;20047;-71
2022/06/06 11:32:08;;;;;;;3.47;1.48;;;;;;;21.50;41.39;101189.91;4976985;28;20062;-65
2022/06/06 11:35:08;;;;;;;6.10;2.92;;;;;;;21.49;42.21;101189.09;4961038;28;20046;-64
2022/06/06 11:38:34;;;;;;;26.52;16.77;;;;;;;21.81;41.80;101189.66;4977288;28;20513;-70
2022/06/06 11:41:17;;;;;;;10.10;6.68;;;;;;;21.83;41.78;101176.84;4896820;29;20052;-65
2022/06/06 11:44:07;;;;;;;3.38;1.65;;;;;;;20.85;42.87;101183.53;4901821;29;20622;-71
2022/06/06 11:47:00;;;;;;;;;;;;;;;20.32;44.97;101202.03;4957135;28;20062;-64
2022/06/06 11:50:09;;;;;;;7.05;2.30;;;;;;;20.67;45.13;101197.19;4977645;28;19926;-64
2022/06/06 11:53:09;;;;;;;4.88;1.27;;;;;;;20.41;46.10;101191.44;4960985;28;20057;-64
2022/06/06 11:56:03;;;;;;;2.63;1.13;;;;;;;20.00;45.03;101195.72;4960686;28;20061;-64
2022/06/06 11:59:10;;;;;;;3.90;1.10;;;;;;;19.95;45.60;101198.78;4960801;28;20062;-65
2022/06/06 12:02:12;;;;;;;3.92;0.82;;;;;;;20.28;45.34;101200.31;4977522;28;20050;-70
2022/06/06 12:04:45;;;;;;;5.47;1.15;;;;;;;20.54;43.92;101192.91;4933613;28;20059;-71
2022/06/06 12:07:16;;;;;;;2.97;1.00;;;;;;;20.49;44.51;101190.41;4977892;28;20051;-71
2022/06/06 12:10:00;;;;;;;4.82;1.10;;;;;;;20.77;44.01;101185.38;4977300;28;20051;-66
2022/06/06 12:13:04;;;;;;;6.30;1.08;;;;;;;20.63;43.95;101173.91;4976908;28;20047;-63
2022/06/06 12:15:32;;;;;;;4.18;1.15;;;;;;;20.58;44.17;101181.78;4977205;28;20051;-64
2022/06/06 12:18:05;;;;;;;3.80;0.73;;;;;;;20.78;43.77;101177.78;4975915;28;20055;-65
2022/06/06 12:21:01;;;;;;;2.33;0.70;;;;;;;20.91;42.87;101173.63;4975822;28;20054;-65
2022/06/06 12:23:46;;;;;;;3.38;0.80;;;;;;;20.81;43.93;101183.47;4975152;28;20051;-65
2022/06/06 12:26:31;;;;;;;4.30;1.10;;;;;;;20.93;44.10;101179.66;4975972;28;20533;-65
2022/06/06 12:29:14;;;;;;;4.07;1.90;;;;;;;20.74;44.42;101172.13;4976726;28;20054;-64
2022/06/06 12:32:05;;;;;;;6.80;3.28;;;;;;;20.59;44.34;101170.22;4959053;28;20054;-65
2022/06/06 12:34:40;;;;;;;22.48;13.68;;;;;;;20.69;44.34;101168.81;4959847;28;20407;-65
2022/06/06 12:37:22;;;;;;;6.07;2.63;;;;;;;20.69;43.16;101164.03;4976810;28;20061;-64
2022/06/06 12:40:12;;;;;;;5.72;2.92;;;;;;;20.89;44.19;101168.41;4976651;28;20403;-66
2022/06/06 12:43:00;;;;;;;3.22;2.00;;;;;;;20.87;43.45;101155.97;4976601;28;20061;-65
2022/06/06 12:45:47;;;;;;;3.55;1.73;;;;;;;20.38;43.19;101155.00;4959744;28;20058;-64
2022/06/06 12:48:27;;;;;;;5.82;1.85;;;;;;;20.61;42.49;101159.44;4976872;28;20058;-65
2022/06/06 12:51:04;;;;;;;3.67;0.95;;;;;;;20.90;41.86;101153.19;4959055;28;20070;-64
2022/06/06 12:53:56;;;;;;;2.60;1.02;;;;;;;21.09;42.56;101158.00;4975984;28;20051;-64
2022/06/06 12:57:10;;;;;;;1.35;0.50;;;;;;;21.04;42.55;101147.09;4976655;28;20058;-65